createdAt,value
2017-12-05T02:01:16.500Z,6.90
2017-12-05T03:28:21.588Z,9.95
2017-12-05T03:30:51.010Z,14.45
2017-12-05T03:33:22.099Z,11.50
2017-12-05T03:35:50.936Z,14.13
2017-12-05T03:38:24.567Z,9.73
2017-12-05T03:40:52.459Z,7.80
2017-12-05T03:43:20.237Z,7.25
2017-12-05T03:45:49.769Z,7.00
2017-12-05T03:48:17.612Z,7.87
2017-12-05T03:50:48.425Z,7.25
2017-12-05T04:16:05.920Z,7.32
2017-12-05T04:35:31.074Z,8.80
2017-12-05T04:37:58.633Z,8.68
2017-12-05T04:40:26.246Z,9.10
2017-12-05T04:42:54.518Z,8.88
2017-12-05T04:45:23.519Z,8.95
2017-12-05T04:47:55.507Z,8.27
2017-12-05T04:50:24.920Z,8.45
2017-12-05T04:52:53.329Z,9.00
2017-12-05T04:55:21.381Z,9.55
2017-12-05T04:57:50.223Z,9.52
2017-12-05T05:00:19.271Z,8.77
2017-12-05T05:02:47.356Z,7.70
2017-12-05T05:05:17.757Z,7.60
2017-12-05T05:07:45.761Z,8.07
2017-12-05T05:10:13.762Z,8.07
2017-12-05T05:12:45.244Z,8.35
2017-12-05T05:15:14.971Z,8.38
2017-12-05T05:17:48.078Z,8.15
2017-12-05T05:20:16.702Z,9.07
2017-12-05T05:22:44.911Z,7.50
2017-12-05T05:25:13.801Z,8.32
2017-12-05T05:27:44.113Z,7.78
2017-12-05T05:30:13.153Z,8.38
2017-12-05T05:32:41.969Z,8.43
2017-12-05T05:35:09.844Z,8.82
2017-12-05T05:37:37.654Z,9.48
2017-12-05T05:40:06.191Z,8.63
2017-12-05T05:42:36.065Z,8.40
2017-12-05T05:45:05.323Z,7.75
2017-12-05T05:47:33.152Z,8.98
2017-12-05T05:50:01.388Z,9.57
2017-12-05T05:52:29.066Z,9.57
2017-12-05T05:54:58.189Z,9.73
2017-12-05T05:57:27.158Z,10.55
2017-12-05T05:59:55.140Z,9.32
2017-12-05T06:02:25.629Z,9.00
2017-12-05T06:04:53.403Z,9.05
2017-12-05T06:07:23.656Z,9.40
2017-12-05T06:09:55.018Z,9.02
2017-12-05T06:12:30.528Z,9.07
2017-12-05T06:15:06.163Z,10.27
2017-12-05T06:17:35.591Z,9.40
2017-12-05T06:20:04.682Z,10.20
2017-12-05T06:22:32.283Z,9.15
2017-12-05T06:25:00.056Z,9.35
2017-12-05T06:27:27.671Z,9.55
2017-12-05T06:29:56.248Z,9.40
2017-12-05T06:32:23.983Z,8.80
2017-12-05T06:34:51.650Z,9.13
2017-12-05T06:37:19.230Z,10.00
2017-12-05T06:39:46.936Z,8.98
2017-12-05T06:42:14.793Z,18.85
2017-12-05T06:44:42.281Z,9.88
2017-12-05T06:47:10.918Z,9.50
2017-12-05T06:49:38.407Z,9.00
2017-12-05T06:52:07.988Z,9.73
2017-12-05T06:54:36.337Z,9.20
2017-12-05T06:57:03.918Z,9.82
2017-12-05T06:59:31.441Z,11.20
2017-12-05T07:01:58.930Z,11.73
2017-12-05T07:04:26.508Z,10.57
2017-12-05T07:06:54.052Z,11.90
2017-12-05T07:09:22.697Z,10.70
2017-12-05T07:11:50.326Z,10.82
2017-12-05T07:14:18.064Z,10.68
2017-12-05T07:16:45.579Z,10.57
2017-12-05T07:19:13.138Z,11.15
2017-12-05T07:21:40.655Z,12.52
2017-12-05T07:24:08.362Z,11.90
2017-12-05T07:26:35.950Z,11.57
2017-12-05T07:29:03.571Z,11.95
2017-12-05T07:31:31.153Z,11.73
2017-12-05T07:33:58.704Z,11.10
2017-12-05T07:36:26.288Z,9.95
2017-12-05T07:38:54.024Z,9.85
2017-12-05T07:41:21.546Z,11.35
2017-12-05T07:43:49.087Z,12.20
2017-12-05T07:46:16.662Z,11.18
2017-12-05T07:48:44.471Z,11.20
2017-12-05T07:51:12.090Z,11.52
2017-12-05T07:53:39.868Z,13.13
2017-12-05T07:56:07.577Z,13.62
2017-12-05T07:58:35.183Z,12.60
2017-12-05T08:01:02.942Z,11.00
2017-12-05T08:03:30.458Z,12.02
2017-12-05T08:05:58.978Z,10.80
2017-12-05T08:08:26.536Z,11.35
2017-12-05T08:10:54.134Z,11.10
2017-12-05T08:13:21.671Z,12.10
2017-12-05T08:15:49.370Z,10.05
2017-12-05T08:18:17.749Z,11.18
2017-12-05T08:20:46.229Z,11.35
2017-12-05T08:23:13.761Z,10.70
2017-12-05T08:25:41.285Z,9.57
2017-12-05T08:28:09.019Z,10.23
2017-12-05T08:30:36.591Z,10.93
2017-12-05T08:33:04.152Z,9.85
2017-12-05T08:35:31.673Z,10.63
2017-12-05T08:38:01.293Z,10.95
2017-12-05T08:40:28.825Z,10.60
2017-12-05T08:43:02.500Z,10.98
2017-12-05T08:45:59.722Z,10.65
2017-12-05T08:54:19.795Z,10.25
2017-12-05T08:56:49.448Z,9.93
2017-12-05T09:13:09.800Z,10.52
2017-12-05T09:15:37.758Z,11.30
2017-12-05T09:20:50.911Z,11.10
2017-12-05T09:23:18.436Z,10.68
2017-12-05T09:25:46.123Z,10.95
2017-12-05T09:28:14.536Z,12.00
2017-12-05T09:30:42.020Z,11.35
2017-12-05T09:33:09.560Z,11.27
2017-12-05T09:35:37.137Z,10.45
2017-12-05T09:38:04.749Z,11.40
2017-12-05T09:40:32.352Z,11.00
2017-12-05T09:42:59.889Z,11.63
2017-12-05T09:45:27.653Z,11.25
2017-12-05T09:47:55.131Z,11.98
2017-12-05T09:50:22.809Z,9.90
2017-12-05T09:52:50.303Z,8.60
2017-12-05T09:55:17.852Z,9.23
2017-12-05T09:57:45.436Z,8.80
2017-12-05T10:00:12.970Z,8.73
2017-12-05T10:02:40.532Z,8.90
2017-12-05T10:05:08.116Z,8.82
2017-12-05T10:07:35.747Z,8.95
2017-12-05T10:10:03.272Z,9.25
2017-12-05T10:12:31.049Z,9.75
2017-12-05T10:14:59.419Z,9.48
2017-12-05T10:17:27.341Z,9.77
2017-12-05T10:19:54.937Z,8.60
2017-12-05T10:22:23.941Z,8.98
2017-12-05T10:27:51.735Z,10.75
2017-12-05T10:30:19.792Z,7.85
2017-12-05T10:56:23.868Z,4.10
2017-12-05T11:04:54.224Z,6.45
2017-12-05T11:07:31.202Z,6.93
2017-12-05T11:10:03.276Z,6.25
2017-12-05T11:12:36.017Z,6.68
2017-12-05T11:15:07.026Z,6.62
2017-12-05T11:17:48.028Z,5.60
